Time;durP1;ratioP1;P1;durP2;ratioP2;P2;SDS_P1;SDS_P2;PMS_P1;PMS_P2;Temp;Humidity;BMP_temperature;BMP_pressure;BME280_temperature;BME280_humidity;BME280_pressure;Samples;Min_cycle;Max_cycle;Signal;HPM_P1;HPM_P2
2021/12/05 00:21:57;;;;;;;83.33;42.43;;;;;;;;;;4431147;32;20248;-54
2021/12/05 00:24:26;;;;;;;84.53;41.27;;;;;;;;;;4429584;32;20712;-54
2021/12/05 00:26:58;;;;;;;80.33;43.77;;;;;;;;;;4429928;32;20248;-56
2021/12/05 00:34:55;;;;;;;83.00;37.23;;;;;;;;;;4431053;32;20671;-55
2021/12/05 00:45:58;;;;;;;79.43;33.47;;;;;;;;;;4431106;32;20259;-55
2021/12/05 01:09:37;;;;;;;23.87;10.00;;;;;;;;;;4415590;32;20570;-55
2021/12/05 01:15:06;;;;;;;22.43;11.23;;;;;;;;;;4418425;32;20209;-55
2021/12/05 01:17:53;;;;;;;27.27;13.67;;;;;;;;;;4446121;32;20272;-56
2021/12/05 01:20:20;;;;;;;24.10;12.63;;;;;;;;;;4446232;32;20316;-56
2021/12/05 01:22:53;;;;;;;20.23;12.07;;;;;;;;;;4446285;32;20651;-56
2021/12/05 01:25:33;;;;;;;24.13;14.17;;;;;;;;;;4415638;32;20241;-55
2021/12/05 01:28:15;;;;;;;26.60;14.00;;;;;;;;;;4415372;32;20642;-55
2021/12/05 01:30:56;;;;;;;28.17;13.97;;;;;;;;;;4414244;32;20606;-57
2021/12/05 01:33:32;;;;;;;32.37;15.73;;;;;;;;;;4415624;32;20224;-56
2021/12/05 01:49:23;;;;;;;34.13;16.43;;;;;;;;;;4415400;32;20232;-56
2021/12/05 02:34:48;;;;;;;59.40;29.33;;;;;;;;;;4424885;32;20251;-55
2021/12/05 02:42:47;;;;;;;64.37;28.40;;;;;;;;;;4432776;32;20209;-55
2021/12/05 02:45:11;;;;;;;59.67;27.87;;;;;;;;;;4433096;32;20556;-54
2021/12/05 02:47:38;;;;;;;56.37;27.53;;;;;;;;;;4432851;32;20279;-55
2021/12/05 02:50:08;;;;;;;54.27;26.23;;;;;;;;;;4418712;32;20291;-55
2021/12/05 02:52:38;;;;;;;58.67;25.33;;;;;;;;;;4416560;32;20260;-56
2021/12/05 02:55:24;;;;;;;56.03;26.37;;;;;;;;;;4432731;32;20253;-55
2021/12/05 02:57:58;;;;;;;56.13;25.67;;;;;;;;;;4432436;32;20289;-55
2021/12/05 03:00:38;;;;;;;54.67;25.13;;;;;;;;;;4432905;32;20233;-55
2021/12/05 03:03:17;;;;;;;56.10;26.23;;;;;;;;;;4418428;32;20268;-55
2021/12/05 03:05:45;;;;;;;57.57;27.60;;;;;;;;;;4432561;32;20302;-54
2021/12/05 03:08:11;;;;;;;73.63;32.70;;;;;;;;;;4432536;32;20251;-54
2021/12/05 03:10:36;;;;;;;80.07;30.83;;;;;;;;;;4432464;32;20371;-55
2021/12/05 03:13:02;;;;;;;59.50;26.57;;;;;;;;;;4432352;32;20280;-54
2021/12/05 03:15:28;;;;;;;51.33;26.13;;;;;;;;;;4432671;32;20260;-54
2021/12/05 03:17:54;;;;;;;53.90;27.63;;;;;;;;;;4418163;32;20262;-55
2021/12/05 03:20:20;;;;;;;53.50;24.67;;;;;;;;;;4432345;32;20241;-54
2021/12/05 03:22:46;;;;;;;49.17;23.97;;;;;;;;;;4431930;32;20336;-55
2021/12/05 03:25:13;;;;;;;45.73;23.30;;;;;;;;;;4421560;32;20312;-55
2021/12/05 03:27:41;;;;;;;39.07;20.80;;;;;;;;;;4432537;32;20281;-55
2021/12/05 03:30:09;;;;;;;46.80;21.03;;;;;;;;;;4432541;32;20275;-55
2021/12/05 03:32:35;;;;;;;47.80;23.37;;;;;;;;;;4432194;32;20638;-54
2021/12/05 03:35:01;;;;;;;38.00;20.97;;;;;;;;;;4431973;32;20241;-53
2021/12/05 03:37:27;;;;;;;37.53;19.50;;;;;;;;;;4432219;32;20280;-53
2021/12/05 03:39:52;;;;;;;44.17;20.07;;;;;;;;;;4432167;32;20275;-54
2021/12/05 03:42:18;;;;;;;44.07;19.17;;;;;;;;;;4432130;32;20246;-56
2021/12/05 03:44:44;;;;;;;29.93;17.07;;;;;;;;;;4432199;32;20336;-55
2021/12/05 03:47:09;;;;;;;43.43;19.73;;;;;;;;;;4432118;32;20567;-55
2021/12/05 03:49:36;;;;;;;41.47;19.77;;;;;;;;;;4431678;32;20311;-55
2021/12/05 03:52:06;;;;;;;44.93;20.03;;;;;;;;;;4431932;32;20547;-56
2021/12/05 03:54:32;;;;;;;35.17;18.07;;;;;;;;;;4421082;32;20244;-56
2021/12/05 03:56:59;;;;;;;38.47;18.17;;;;;;;;;;4402448;32;20891;-55
2021/12/05 03:59:28;;;;;;;44.07;19.87;;;;;;;;;;4416506;32;20217;-55
2021/12/05 04:01:54;;;;;;;41.10;20.10;;;;;;;;;;4421006;32;20573;-55
2021/12/05 04:04:19;;;;;;;39.80;19.60;;;;;;;;;;4432010;32;20284;-55
2021/12/05 04:06:46;;;;;;;38.03;19.50;;;;;;;;;;4431574;32;20319;-57
2021/12/05 04:09:12;;;;;;;43.37;21.30;;;;;;;;;;4416913;32;20217;-55
2021/12/05 04:11:44;;;;;;;48.43;20.87;;;;;;;;;;4417539;32;20252;-54
2021/12/05 04:14:13;;;;;;;46.03;21.57;;;;;;;;;;4431756;32;20208;-56
2021/12/05 04:16:40;;;;;;;41.93;20.33;;;;;;;;;;4431828;32;20236;-56
2021/12/05 04:19:06;;;;;;;48.33;22.20;;;;;;;;;;4431005;32;20216;-56
2021/12/05 04:21:35;;;;;;;44.97;21.93;;;;;;;;;;4431492;32;20335;-56
2021/12/05 04:24:01;;;;;;;51.63;22.87;;;;;;;;;;4417466;32;20284;-55
2021/12/05 04:26:26;;;;;;;44.73;24.03;;;;;;;;;;4431333;32;20277;-56
2021/12/05 04:28:53;;;;;;;45.83;20.37;;;;;;;;;;4431324;32;20285;-55
2021/12/05 04:31:20;;;;;;;39.07;19.10;;;;;;;;;;4431526;32;20275;-56
2021/12/05 04:33:48;;;;;;;44.03;21.00;;;;;;;;;;4430774;32;20356;-55
2021/12/05 04:36:13;;;;;;;42.23;19.20;;;;;;;;;;4431598;32;20683;-55
2021/12/05 04:38:39;;;;;;;37.73;18.07;;;;;;;;;;4417266;32;20308;-56
2021/12/05 04:41:06;;;;;;;35.73;17.73;;;;;;;;;;4431375;32;20236;-54
2021/12/05 04:43:37;;;;;;;32.77;17.47;;;;;;;;;;4431247;32;20216;-56
2021/12/05 04:46:24;;;;;;;33.17;16.50;;;;;;;;;;4431233;32;20610;-55
2021/12/05 04:48:52;;;;;;;25.97;14.50;;;;;;;;;;4430819;32;20257;-56
2021/12/05 04:51:20;;;;;;;26.07;15.23;;;;;;;;;;4430826;32;20684;-58
2021/12/05 04:53:46;;;;;;;35.03;16.10;;;;;;;;;;4431167;32;20551;-56
2021/12/05 04:56:12;;;;;;;30.67;14.73;;;;;;;;;;4431170;32;20333;-56
2021/12/05 04:58:39;;;;;;;27.40;13.53;;;;;;;;;;4430906;32;20570;-56
2021/12/05 05:01:05;;;;;;;23.73;13.33;;;;;;;;;;4431097;32;20256;-56
2021/12/05 05:03:32;;;;;;;28.67;14.47;;;;;;;;;;4430740;32;20248;-55
2021/12/05 05:06:17;;;;;;;26.00;14.30;;;;;;;;;;4430676;32;20300;-56
2021/12/05 05:08:45;;;;;;;29.90;14.50;;;;;;;;;;4430835;32;20249;-56
2021/12/05 05:11:13;;;;;;;26.17;14.23;;;;;;;;;;4430765;32;20655;-56
2021/12/05 05:13:39;;;;;;;32.17;15.43;;;;;;;;;;4430912;32;20244;-56
2021/12/05 05:16:06;;;;;;;29.50;15.17;;;;;;;;;;4430936;32;20597;-56
2021/12/05 05:18:47;;;;;;;27.77;15.17;;;;;;;;;;4430476;32;20332;-56
2021/12/05 05:21:34;;;;;;;34.30;16.33;;;;;;;;;;4430727;32;20334;-56
2021/12/05 05:45:59;;;;;;;33.23;17.63;;;;;;;;;;4408286;32;20316;-58
2021/12/05 05:48:35;;;;;;;39.23;18.43;;;;;;;;;;4417136;32;20587;-58
2021/12/05 05:51:02;;;;;;;42.03;21.33;;;;;;;;;;4418641;32;20344;-56
2021/12/05 05:53:27;;;;;;;40.87;19.00;;;;;;;;;;4404309;32;20308;-56
2021/12/05 05:55:55;;;;;;;39.63;20.23;;;;;;;;;;4418530;32;20322;-57
2021/12/05 05:58:25;;;;;;;33.93;19.60;;;;;;;;;;4418527;32;20503;-57
2021/12/05 06:01:05;;;;;;;48.43;21.47;;;;;;;;;;4418336;32;20233;-57
2021/12/05 06:03:31;;;;;;;42.10;23.27;;;;;;;;;;4419220;32;20232;-57
2021/12/05 06:05:59;;;;;;;49.30;23.70;;;;;;;;;;4419875;32;20641;-56
2021/12/05 06:08:28;;;;;;;40.57;23.93;;;;;;;;;;4433485;32;20573;-56
2021/12/05 06:10:57;;;;;;;56.90;25.67;;;;;;;;;;4433370;32;20559;-56
2021/12/05 06:13:24;;;;;;;42.67;24.63;;;;;;;;;;4433532;32;20213;-55
2021/12/05 06:15:50;;;;;;;47.97;24.67;;;;;;;;;;4419069;32;20240;-54
2021/12/05 06:18:16;;;;;;;49.63;26.53;;;;;;;;;;4432874;32;20242;-56
2021/12/05 06:20:43;;;;;;;48.40;23.47;;;;;;;;;;4433237;32;20232;-56
2021/12/05 06:23:11;;;;;;;43.73;22.40;;;;;;;;;;4432797;32;20220;-56
2021/12/05 06:25:39;;;;;;;40.30;21.73;;;;;;;;;;4433488;32;20923;-55
2021/12/05 06:28:11;;;;;;;32.00;18.90;;;;;;;;;;4432967;32;20240;-54
2021/12/05 06:30:48;;;;;;;41.00;22.03;;;;;;;;;;4433217;32;20665;-55
2021/12/05 06:46:01;;;;;;;23.30;12.03;;;;;;;;;;4418104;32;20299;-54
2021/12/05 06:46:34;;;;;;;22.60;11.70;;;;;;;;;;4432225;32;20325;-54
2021/12/05 06:48:59;;;;;;;34.73;21.13;;;;;;;;;;4432373;32;20217;-55
2021/12/05 06:51:28;;;;;;;21.50;10.67;;;;;;;;;;4432458;32;20362;-56
2021/12/05 06:53:55;;;;;;;14.30;9.17;;;;;;;;;;4432717;32;20212;-55
2021/12/05 06:56:20;;;;;;;17.00;9.00;;;;;;;;;;4424410;32;20269;-55
2021/12/05 06:58:46;;;;;;;16.63;9.13;;;;;;;;;;4417527;32;20276;-55
2021/12/05 07:01:13;;;;;;;18.97;10.80;;;;;;;;;;4424410;32;20260;-54
2021/12/05 07:03:42;;;;;;;12.23;7.47;;;;;;;;;;4432638;32;20240;-54
2021/12/05 07:06:12;;;;;;;27.07;12.10;;;;;;;;;;4432756;32;20583;-55
2021/12/05 07:08:41;;;;;;;14.37;10.03;;;;;;;;;;4432512;32;20469;-54
2021/12/05 07:11:17;;;;;;;12.53;7.37;;;;;;;;;;4432147;32;20760;-54
2021/12/05 07:21:59;;;;;;;16.43;9.57;;;;;;;;;;4417004;32;20232;-54
2021/12/05 07:24:48;;;;;;;19.50;9.70;;;;;;;;;;4431197;32;20682;-56
2021/12/05 07:43:55;;;;;;;21.20;9.07;;;;;;;;;;4419602;32;20233;-55
2021/12/05 07:46:21;;;;;;;23.77;9.37;;;;;;;;;;4417346;32;20241;-56
2021/12/05 07:48:47;;;;;;;26.00;10.37;;;;;;;;;;4416697;32;20319;-55
2021/12/05 07:59:17;;;;;;;41.07;22.57;;;;;;;;;;4416302;32;20239;-55
2021/12/05 08:15:30;;;;;;;19.63;12.77;;;;;;;;;;4431787;32;20301;-55
2021/12/05 08:17:58;;;;;;;24.13;13.43;;;;;;;;;;4431589;32;20213;-55
2021/12/05 08:20:25;;;;;;;22.43;14.20;;;;;;;;;;4443404;32;20319;-55
2021/12/05 08:22:51;;;;;;;22.50;14.50;;;;;;;;;;4447003;32;20207;-54
2021/12/05 08:25:20;;;;;;;27.87;14.83;;;;;;;;;;4447001;32;20392;-54
2021/12/05 08:27:50;;;;;;;25.67;14.70;;;;;;;;;;4446786;32;20639;-56
2021/12/05 08:30:24;;;;;;;29.67;16.13;;;;;;;;;;4446467;32;20240;-54
2021/12/05 09:08:46;;;;;;;47.63;24.80;;;;;;;;;;4419009;32;20330;-56
2021/12/05 09:27:55;;;;;;;42.70;26.30;;;;;;;;;;4417656;32;20703;-55
2021/12/05 10:06:45;;;;;;;57.20;30.77;;;;;;;;;;4432321;32;20886;-55
2021/12/05 10:20:10;;;;;;;40.07;25.50;;;;;;;;;;4423108;32;20561;-56
2021/12/05 10:34:31;;;;;;;35.70;18.90;;;;;;;;;;4429925;32;20232;-54
2021/12/05 10:37:05;;;;;;;30.80;18.53;;;;;;;;;;4426836;32;20824;-54
2021/12/05 10:39:31;;;;;;;34.67;19.23;;;;;;;;;;4437125;32;20331;-55
2021/12/05 10:42:12;;;;;;;34.80;20.20;;;;;;;;;;4432392;32;20311;-54
2021/12/05 10:44:45;;;;;;;32.63;16.93;;;;;;;;;;4428361;32;20291;-54
2021/12/05 10:47:12;;;;;;;27.10;15.90;;;;;;;;;;4424741;32;20217;-55
2021/12/05 10:49:37;;;;;;;35.53;19.63;;;;;;;;;;4416488;32;20280;-55
2021/12/05 10:52:03;;;;;;;38.80;20.57;;;;;;;;;;4416722;32;20200;-55
2021/12/05 10:54:29;;;;;;;43.20;21.47;;;;;;;;;;4417423;32;20279;-55
2021/12/05 10:57:00;;;;;;;40.50;20.07;;;;;;;;;;4402997;32;20229;-55
2021/12/05 10:59:36;;;;;;;39.13;20.53;;;;;;;;;;4416458;32;20693;-55
2021/12/05 11:02:05;;;;;;;34.30;20.80;;;;;;;;;;4419938;32;20279;-55
2021/12/05 11:04:33;;;;;;;39.67;23.10;;;;;;;;;;4430703;32;20224;-55
2021/12/05 11:07:10;;;;;;;41.57;25.97;;;;;;;;;;4430741;32;20439;-55
2021/12/05 11:09:40;;;;;;;45.23;24.47;;;;;;;;;;4430810;32;20229;-54
2021/12/05 11:12:18;;;;;;;33.97;20.43;;;;;;;;;;4418057;32;20228;-55
2021/12/05 11:14:50;;;;;;;44.40;25.80;;;;;;;;;;4417500;32;20236;-54
2021/12/05 11:17:19;;;;;;;42.57;23.37;;;;;;;;;;4418430;32;20681;-56
2021/12/05 11:19:53;;;;;;;46.20;25.73;;;;;;;;;;4432392;32;20265;-55
2021/12/05 11:22:32;;;;;;;43.57;27.70;;;;;;;;;;4432185;32;20216;-55
2021/12/05 11:25:11;;;;;;;61.83;32.67;;;;;;;;;;4432744;32;20217;-55
2021/12/05 11:27:38;;;;;;;42.40;25.63;;;;;;;;;;4418338;32;20275;-54
2021/12/05 11:30:13;;;;;;;38.17;23.40;;;;;;;;;;4432007;32;20224;-54
2021/12/05 11:32:47;;;;;;;47.43;25.60;;;;;;;;;;4431913;32;20243;-55
2021/12/05 11:35:13;;;;;;;38.50;23.17;;;;;;;;;;4432308;32;20366;-54
2021/12/05 11:38:15;;;;;;;37.67;22.40;;;;;;;;;;4432369;32;20209;-54
2021/12/05 11:41:10;;;;;;;36.67;20.80;;;;;;;;;;4421987;32;20232;-55
2021/12/05 11:43:39;;;;;;;24.57;14.53;;;;;;;;;;4431935;32;20225;-54
2021/12/05 11:46:15;;;;;;;25.00;14.53;;;;;;;;;;4432268;32;20228;-54
2021/12/05 11:48:46;;;;;;;21.93;12.73;;;;;;;;;;4431540;32;20216;-55
2021/12/05 11:51:29;;;;;;;28.10;16.57;;;;;;;;;;4431963;32;20296;-55
2021/12/05 11:54:01;;;;;;;21.70;12.60;;;;;;;;;;4432364;32;20272;-54
2021/12/05 11:56:29;;;;;;;27.47;13.67;;;;;;;;;;4416850;32;20677;-54
2021/12/05 11:59:19;;;;;;;27.10;15.07;;;;;;;;;;4431500;32;20391;-54
2021/12/05 12:01:53;;;;;;;29.10;15.97;;;;;;;;;;4431509;32;20663;-54
2021/12/05 12:04:21;;;;;;;33.70;16.97;;;;;;;;;;4430869;32;20273;-55
2021/12/05 12:07:08;;;;;;;23.03;13.73;;;;;;;;;;4431052;32;20275;-55
2021/12/05 12:09:33;;;;;;;28.77;13.93;;;;;;;;;;4429547;32;20595;-54
2021/12/05 12:12:00;;;;;;;34.97;15.80;;;;;;;;;;4431371;32;20275;-54
2021/12/05 12:14:27;;;;;;;32.83;16.00;;;;;;;;;;4431566;32;20367;-55
2021/12/05 12:16:53;;;;;;;26.70;16.03;;;;;;;;;;4431198;32;20341;-55
2021/12/05 12:19:22;;;;;;;31.03;15.27;;;;;;;;;;4431098;32;20292;-56
2021/12/05 12:21:49;;;;;;;27.70;13.90;;;;;;;;;;4413463;32;20399;-54
2021/12/05 12:24:17;;;;;;;35.67;15.90;;;;;;;;;;4428335;32;20354;-54
2021/12/05 12:26:44;;;;;;;22.23;13.97;;;;;;;;;;4430155;32;20240;-54
2021/12/05 12:29:11;;;;;;;32.07;15.97;;;;;;;;;;4424470;32;20213;-54
2021/12/05 12:31:41;;;;;;;24.67;14.13;;;;;;;;;;4418712;32;20351;-54
2021/12/05 12:34:21;;;;;;;33.70;17.00;;;;;;;;;;4421034;32;20239;-54
2021/12/05 12:36:50;;;;;;;35.17;15.47;;;;;;;;;;4414910;32;20233;-55
2021/12/05 12:39:15;;;;;;;25.67;15.33;;;;;;;;;;4416777;32;20244;-54
2021/12/05 12:41:41;;;;;;;26.60;13.43;;;;;;;;;;4430547;32;20224;-54
2021/12/05 12:44:07;;;;;;;28.00;15.00;;;;;;;;;;4430866;32;20658;-55
2021/12/05 12:46:42;;;;;;;32.90;15.53;;;;;;;;;;4428882;32;20285;-54
2021/12/05 12:49:16;;;;;;;27.43;15.13;;;;;;;;;;4415758;32;20625;-57
2021/12/05 12:51:51;;;;;;;28.93;16.57;;;;;;;;;;4415833;32;20649;-54
2021/12/05 12:54:28;;;;;;;31.47;17.37;;;;;;;;;;4415136;32;20197;-55
2021/12/05 12:57:01;;;;;;;47.73;24.47;;;;;;;;;;4415484;32;20303;-54
2021/12/05 12:59:30;;;;;;;44.67;21.93;;;;;;;;;;4414331;32;20706;-56
2021/12/05 13:02:36;;;;;;;29.07;17.70;;;;;;;;;;4415085;32;20241;-54
2021/12/05 13:05:19;;;;;;;31.50;17.50;;;;;;;;;;4423810;32;20315;-54
2021/12/05 13:10:45;;;;;;;39.03;23.33;;;;;;;;;;4427571;32;20600;-55
2021/12/05 13:13:17;;;;;;;38.20;16.47;;;;;;;;;;4428691;32;20249;-55
2021/12/05 13:16:00;;;;;;;27.37;17.20;;;;;;;;;;4430451;32;20294;-54
2021/12/05 13:18:30;;;;;;;27.60;16.00;;;;;;;;;;4430750;32;20283;-56
2021/12/05 13:21:00;;;;;;;31.13;17.83;;;;;;;;;;4416947;32;20682;-55
2021/12/05 13:23:42;;;;;;;25.07;15.87;;;;;;;;;;4430477;32;20291;-56
2021/12/05 13:26:08;;;;;;;33.87;19.23;;;;;;;;;;4429115;32;20414;-55
2021/12/05 13:28:40;;;;;;;31.23;16.97;;;;;;;;;;4430496;32;20716;-56
2021/12/05 13:31:27;;;;;;;28.00;16.07;;;;;;;;;;4430888;32;20220;-55
2021/12/05 13:34:25;;;;;;;25.50;15.43;;;;;;;;;;4415619;32;20209;-55
2021/12/05 13:37:06;;;;;;;24.50;14.27;;;;;;;;;;4415772;32;20225;-54
2021/12/05 13:39:49;;;;;;;24.13;11.27;;;;;;;;;;4415444;32;20614;-55
2021/12/05 13:42:34;;;;;;;23.70;11.83;;;;;;;;;;4400540;32;20396;-54
2021/12/05 13:45:04;;;;;;;19.67;11.90;;;;;;;;;;4403873;32;20243;-54
2021/12/05 13:47:37;;;;;;;30.07;16.30;;;;;;;;;;4421233;32;20263;-54
2021/12/05 13:50:29;;;;;;;20.30;12.00;;;;;;;;;;4430938;32;20305;-57
2021/12/05 13:53:00;;;;;;;25.33;13.53;;;;;;;;;;4430861;32;20634;-59
2021/12/05 13:55:46;;;;;;;29.53;15.70;;;;;;;;;;4431069;32;20541;-55
2021/12/05 13:58:41;;;;;;;32.40;16.33;;;;;;;;;;4430568;32;20213;-56
2021/12/05 14:01:33;;;;;;;32.93;17.93;;;;;;;;;;4430601;32;20305;-56
2021/12/05 14:04:06;;;;;;;34.80;17.27;;;;;;;;;;4415706;32;20228;-55
2021/12/05 14:06:39;;;;;;;31.33;17.53;;;;;;;;;;4416700;32;20295;-57
2021/12/05 14:09:19;;;;;;;29.33;17.07;;;;;;;;;;4418283;32;20233;-55
2021/12/05 14:12:14;;;;;;;37.93;19.70;;;;;;;;;;4418229;32;20220;-56
2021/12/05 14:14:49;;;;;;;34.53;20.17;;;;;;;;;;4416280;32;20229;-56
2021/12/05 14:17:33;;;;;;;39.73;21.73;;;;;;;;;;4417710;32;20653;-56
2021/12/05 14:20:12;;;;;;;40.93;22.13;;;;;;;;;;4417365;32;20646;-55
2021/12/05 14:22:39;;;;;;;47.07;24.77;;;;;;;;;;4417944;32;20806;-56
2021/12/05 14:25:11;;;;;;;47.07;27.60;;;;;;;;;;4417822;32;20233;-56
2021/12/05 14:27:42;;;;;;;89.03;45.47;;;;;;;;;;4432563;32;20204;-55
2021/12/05 14:30:11;;;;;;;87.23;46.90;;;;;;;;;;4432850;32;20303;-57
2021/12/05 14:32:40;;;;;;;97.97;45.57;;;;;;;;;;4432636;32;20664;-56
2021/12/05 14:35:19;;;;;;;76.10;43.40;;;;;;;;;;4432971;32;20299;-55
2021/12/05 14:37:47;;;;;;;68.80;35.07;;;;;;;;;;4432927;32;20216;-57
2021/12/05 14:40:16;;;;;;;63.33;31.50;;;;;;;;;;4432639;32;20252;-57
2021/12/05 14:42:45;;;;;;;64.03;33.03;;;;;;;;;;4432687;32;20625;-56
2021/12/05 14:45:22;;;;;;;77.77;38.20;;;;;;;;;;4432350;32;20374;-56
2021/12/05 14:47:50;;;;;;;78.03;40.20;;;;;;;;;;4423138;32;20363;-56
2021/12/05 14:50:20;;;;;;;83.20;42.03;;;;;;;;;;4403039;32;20333;-56
2021/12/05 14:52:50;;;;;;;76.13;42.97;;;;;;;;;;4417331;32;20263;-57
2021/12/05 14:55:20;;;;;;;84.07;39.60;;;;;;;;;;4417074;32;20229;-55
2021/12/05 14:57:53;;;;;;;86.00;40.10;;;;;;;;;;4403196;32;20304;-57
2021/12/05 15:00:24;;;;;;;80.03;40.23;;;;;;;;;;4417258;32;20304;-55
2021/12/05 15:03:09;;;;;;;96.70;46.33;;;;;;;;;;4425256;32;20220;-56
2021/12/05 15:05:37;;;;;;;183.10;84.83;;;;;;;;;;4432736;32;20251;-56
2021/12/05 15:08:15;;;;;;;195.83;94.50;;;;;;;;;;4432509;32;20254;-56
2021/12/05 15:10:41;;;;;;;177.20;87.83;;;;;;;;;;4432738;32;20277;-55
2021/12/05 15:13:09;;;;;;;189.90;84.93;;;;;;;;;;4432726;32;20511;-55
2021/12/05 15:15:35;;;;;;;157.03;74.20;;;;;;;;;;4432355;32;20276;-56
2021/12/05 15:18:00;;;;;;;133.13;59.90;;;;;;;;;;4431691;32;20690;-56
2021/12/05 15:20:29;;;;;;;116.20;57.47;;;;;;;;;;4432225;32;20224;-55
2021/12/05 15:23:01;;;;;;;101.63;49.97;;;;;;;;;;4432258;32;20530;-56
2021/12/05 15:25:28;;;;;;;105.00;55.10;;;;;;;;;;4415777;32;20301;-57
2021/12/05 15:27:55;;;;;;;110.87;59.37;;;;;;;;;;4416714;32;20205;-56
2021/12/05 15:30:25;;;;;;;102.77;52.57;;;;;;;;;;4402781;32;20634;-56
2021/12/05 15:32:54;;;;;;;98.53;53.30;;;;;;;;;;4416659;32;20460;-56
2021/12/05 15:35:21;;;;;;;107.33;60.40;;;;;;;;;;4416921;32;20221;-57
2021/12/05 15:37:54;;;;;;;113.20;55.50;;;;;;;;;;4416611;32;20228;-56
2021/12/05 15:40:22;;;;;;;109.33;54.43;;;;;;;;;;4390002;32;20300;-56
2021/12/05 15:42:48;;;;;;;113.70;56.60;;;;;;;;;;4416826;32;20284;-58
2021/12/05 15:45:17;;;;;;;112.37;55.03;;;;;;;;;;4416269;32;20263;-57
2021/12/05 15:47:45;;;;;;;122.33;61.80;;;;;;;;;;4424392;32;20241;-57
2021/12/05 15:50:17;;;;;;;124.77;65.13;;;;;;;;;;4431743;32;20233;-56
2021/12/05 15:52:52;;;;;;;137.90;75.33;;;;;;;;;;4431350;32;20227;-56
2021/12/05 15:55:46;;;;;;;130.97;71.83;;;;;;;;;;4431110;32;20334;-56
2021/12/05 15:58:12;;;;;;;98.27;58.83;;;;;;;;;;4417865;32;20221;-56
2021/12/05 16:01:03;;;;;;;84.17;47.53;;;;;;;;;;4431576;32;20319;-57
2021/12/05 16:03:42;;;;;;;91.77;48.17;;;;;;;;;;4424179;32;20258;-56
2021/12/05 16:06:09;;;;;;;97.83;49.10;;;;;;;;;;4405448;32;20771;-56
2021/12/05 16:08:35;;;;;;;94.70;49.37;;;;;;;;;;4431698;32;20209;-56
2021/12/05 16:11:02;;;;;;;113.50;54.23;;;;;;;;;;4417643;32;20225;-56
2021/12/05 16:13:38;;;;;;;119.60;65.03;;;;;;;;;;4431028;32;20216;-56
2021/12/05 16:16:13;;;;;;;144.67;77.10;;;;;;;;;;4431351;32;20251;-56
2021/12/05 16:18:42;;;;;;;163.07;78.67;;;;;;;;;;4431513;32;20627;-56
2021/12/05 16:21:26;;;;;;;232.17;104.90;;;;;;;;;;4424702;32;20503;-56
2021/12/05 16:23:52;;;;;;;147.70;81.57;;;;;;;;;;4402371;32;20244;-56
2021/12/05 16:26:22;;;;;;;147.20;77.37;;;;;;;;;;4416057;32;20222;-56
2021/12/05 16:28:56;;;;;;;138.83;69.63;;;;;;;;;;4416277;32;20288;-56
2021/12/05 16:31:45;;;;;;;110.60;57.87;;;;;;;;;;4415275;32;20274;-56
2021/12/05 16:34:12;;;;;;;127.87;57.20;;;;;;;;;;4416086;32;20224;-56
2021/12/05 16:36:40;;;;;;;119.70;59.30;;;;;;;;;;4416175;32;20292;-56
2021/12/05 16:39:16;;;;;;;155.17;75.93;;;;;;;;;;4415939;32;20231;-56
2021/12/05 16:41:52;;;;;;;177.53;84.43;;;;;;;;;;4415951;32;20255;-55
2021/12/05 16:44:23;;;;;;;141.80;70.53;;;;;;;;;;4414140;32;20236;-55
2021/12/05 16:46:52;;;;;;;76.73;39.93;;;;;;;;;;4424924;32;20338;-56
2021/12/05 16:49:30;;;;;;;89.17;46.67;;;;;;;;;;4428449;32;20279;-56
2021/12/05 16:52:06;;;;;;;79.03;39.97;;;;;;;;;;4431150;32;20224;-55
2021/12/05 16:54:35;;;;;;;71.03;36.80;;;;;;;;;;4431322;32;20225;-57
2021/12/05 16:57:14;;;;;;;71.47;38.00;;;;;;;;;;4431343;32;20268;-57
2021/12/05 16:59:55;;;;;;;63.73;33.53;;;;;;;;;;4430769;32;20260;-56
2021/12/05 17:02:28;;;;;;;62.30;32.53;;;;;;;;;;4414733;32;20240;-57
2021/12/05 17:05:00;;;;;;;91.93;46.87;;;;;;;;;;4431122;32;20240;-56
2021/12/05 17:07:42;;;;;;;63.60;33.67;;;;;;;;;;4431330;32;20231;-57
2021/12/05 17:10:20;;;;;;;71.07;34.97;;;;;;;;;;4430936;32;20788;-56
2021/12/05 17:12:47;;;;;;;85.40;43.50;;;;;;;;;;4431424;32;20672;-56
2021/12/05 17:15:30;;;;;;;88.37;45.33;;;;;;;;;;4416803;32;20237;-57
2021/12/05 17:18:03;;;;;;;86.60;49.47;;;;;;;;;;4414712;32;20297;-55
2021/12/05 17:20:34;;;;;;;100.23;52.77;;;;;;;;;;4416046;32;20268;-58
2021/12/05 17:23:06;;;;;;;92.80;48.43;;;;;;;;;;4416064;32;20227;-56
2021/12/05 17:25:44;;;;;;;98.83;56.63;;;;;;;;;;4415788;32;20307;-56
2021/12/05 17:28:29;;;;;;;111.97;61.00;;;;;;;;;;4415930;32;20232;-56
2021/12/05 17:30:58;;;;;;;148.80;81.43;;;;;;;;;;4415699;32;20243;-57
2021/12/05 17:33:36;;;;;;;137.70;78.53;;;;;;;;;;4424430;32;20268;-56
2021/12/05 17:36:25;;;;;;;139.77;75.83;;;;;;;;;;4428568;32;20576;-56
2021/12/05 17:38:54;;;;;;;176.30;90.63;;;;;;;;;;4423577;32;20228;-56
2021/12/05 17:41:20;;;;;;;165.87;83.90;;;;;;;;;;4428813;32;20221;-56
2021/12/05 17:43:47;;;;;;;166.80;89.20;;;;;;;;;;4419262;32;20312;-55
2021/12/05 17:46:13;;;;;;;117.20;57.70;;;;;;;;;;4431122;32;20258;-56
2021/12/05 17:48:40;;;;;;;94.00;51.47;;;;;;;;;;4432233;32;20236;-56
2021/12/05 17:51:06;;;;;;;89.73;43.00;;;;;;;;;;4432459;32;20390;-54
2021/12/05 17:53:35;;;;;;;92.47;46.73;;;;;;;;;;4414765;32;20323;-55
2021/12/05 17:56:10;;;;;;;73.03;38.00;;;;;;;;;;4418032;32;20266;-56
2021/12/05 18:03:52;;;;;;;28.57;16.07;;;;;;;;;;4431165;32;20646;-55
2021/12/05 18:06:20;;;;;;;42.07;20.50;;;;;;;;;;4430822;32;20811;-56
2021/12/05 18:08:47;;;;;;;25.33;13.47;;;;;;;;;;4418900;32;20304;-56
2021/12/05 18:11:19;;;;;;;19.27;9.50;;;;;;;;;;4432560;32;20687;-55
2021/12/05 18:13:50;;;;;;;19.40;9.47;;;;;;;;;;4435513;32;20585;-55
2021/12/05 18:16:23;;;;;;;15.17;7.63;;;;;;;;;;4435139;32;20659;-57
2021/12/05 18:18:48;;;;;;;12.27;7.63;;;;;;;;;;4434708;32;20341;-55
2021/12/05 18:21:14;;;;;;;10.43;6.00;;;;;;;;;;4434232;32;20244;-55
2021/12/05 18:23:40;;;;;;;21.10;12.37;;;;;;;;;;4434591;32;20701;-57
2021/12/05 18:26:07;;;;;;;51.40;26.30;;;;;;;;;;4434404;32;20291;-55
2021/12/05 18:28:34;;;;;;;49.83;24.90;;;;;;;;;;4433556;32;20233;-57
2021/12/05 18:31:01;;;;;;;45.70;22.83;;;;;;;;;;4432735;32;20233;-55
2021/12/05 18:33:29;;;;;;;51.77;27.13;;;;;;;;;;4433551;32;20212;-58
2021/12/05 18:35:55;;;;;;;63.77;30.70;;;;;;;;;;4434769;32;20706;-56
2021/12/05 18:38:23;;;;;;;52.27;24.70;;;;;;;;;;4433782;32;20201;-56
2021/12/05 18:40:52;;;;;;;37.73;22.33;;;;;;;;;;4434012;32;20229;-55
2021/12/05 18:43:21;;;;;;;36.13;22.00;;;;;;;;;;4434107;32;20287;-56
2021/12/05 18:45:47;;;;;;;40.03;19.87;;;;;;;;;;4420273;32;20244;-56
2021/12/05 18:48:13;;;;;;;30.27;15.80;;;;;;;;;;4433975;32;20235;-56
2021/12/05 18:50:41;;;;;;;28.67;14.00;;;;;;;;;;4434529;32;20229;-55
2021/12/05 18:53:07;;;;;;;23.10;10.73;;;;;;;;;;4434013;32;20299;-56
2021/12/05 18:55:34;;;;;;;20.30;11.77;;;;;;;;;;4420151;32;20266;-60
2021/12/05 18:58:07;;;;;;;25.00;13.47;;;;;;;;;;4434170;32;20208;-56
2021/12/05 19:00:40;;;;;;;32.90;12.60;;;;;;;;;;4419475;32;20228;-56
2021/12/05 19:05:56;;;;;;;54.33;27.67;;;;;;;;;;4434015;32;20663;-55
2021/12/05 19:13:41;;;;;;;28.77;15.40;;;;;;;;;;4433496;32;20243;-57
2021/12/05 19:16:06;;;;;;;29.23;17.23;;;;;;;;;;4433733;32;20290;-56
2021/12/05 19:18:33;;;;;;;37.67;19.20;;;;;;;;;;4433876;32;20284;-57
2021/12/05 19:20:59;;;;;;;33.73;18.27;;;;;;;;;;4433477;32;20237;-56
2021/12/05 19:23:26;;;;;;;44.47;21.67;;;;;;;;;;4432607;32;20285;-55
2021/12/05 19:25:51;;;;;;;41.50;21.27;;;;;;;;;;4432673;32;20282;-56
2021/12/05 19:28:17;;;;;;;43.07;20.83;;;;;;;;;;4432759;32;20201;-55
2021/12/05 19:30:48;;;;;;;41.27;23.53;;;;;;;;;;4432737;32;20677;-55
2021/12/05 19:33:15;;;;;;;49.00;21.17;;;;;;;;;;4432592;32;20609;-57
2021/12/05 19:35:41;;;;;;;49.57;23.20;;;;;;;;;;4429861;32;20235;-56
2021/12/05 19:38:08;;;;;;;39.00;22.60;;;;;;;;;;4432451;32;20532;-56
2021/12/05 19:40:35;;;;;;;35.70;19.40;;;;;;;;;;4432280;32;20327;-56
2021/12/05 19:43:03;;;;;;;39.27;18.07;;;;;;;;;;4433123;32;20237;-56
2021/12/05 19:45:29;;;;;;;34.17;18.13;;;;;;;;;;4432631;32;20267;-56
2021/12/05 19:47:56;;;;;;;27.27;15.07;;;;;;;;;;4432667;32;20205;-56
2021/12/05 19:50:26;;;;;;;44.77;20.87;;;;;;;;;;4432819;32;20229;-55
2021/12/05 19:52:53;;;;;;;47.63;24.03;;;;;;;;;;4432900;32;20256;-55
2021/12/05 19:55:19;;;;;;;53.97;30.07;;;;;;;;;;4432776;32;20315;-56
2021/12/05 19:57:45;;;;;;;51.90;28.13;;;;;;;;;;4418938;32;20616;-57
2021/12/05 20:00:16;;;;;;;70.57;38.40;;;;;;;;;;4429968;32;20225;-56
2021/12/05 20:02:44;;;;;;;73.80;36.70;;;;;;;;;;4425771;32;20615;-55
2021/12/05 20:05:12;;;;;;;69.87;37.73;;;;;;;;;;4417049;32;20248;-55
2021/12/05 20:07:39;;;;;;;37.47;21.53;;;;;;;;;;4417592;32;20314;-55